Time;durP1;ratioP1;P1;durP2;ratioP2;P2;SDS_P1;SDS_P2;PMS_P1;PMS_P2;Temp;Humidity;BMP_temperature;BMP_pressure;BME280_temperature;BME280_humidity;BME280_pressure;Samples;Min_cycle;Max_cycle;Signal;HPM_P1;HPM_P2
2022/10/15 00:00:26;;;;;;;;;;;23.90;97.90;;;;;;4194020;28;19932;-66
2022/10/15 00:02:32;;;;;;;;;;;24.00;97.70;;;;;;4194190;28;19928;-67
2022/10/15 00:04:38;;;;;;;;;;;23.90;97.60;;;;;;4192003;28;19928;-67
2022/10/15 00:06:42;;;;;;;;;;;24.00;97.90;;;;;;4191589;28;19955;-67
2022/10/15 00:08:46;;;;;;;;;;;23.90;98.30;;;;;;4207526;28;20377;-66
2022/10/15 00:10:50;;;;;;;;;;;23.90;98.50;;;;;;4210918;28;20023;-67
2022/10/15 00:12:55;;;;;;;;;;;23.90;98.40;;;;;;4197226;28;19928;-67
2022/10/15 00:15:01;;;;;;;;;;;23.90;98.60;;;;;;4193990;28;19924;-66
2022/10/15 00:17:05;;;;;;;;;;;24.00;98.50;;;;;;4194401;28;19931;-67
2022/10/15 00:19:09;;;;;;;;;;;23.90;98.40;;;;;;4193985;28;20316;-66
2022/10/15 00:21:14;;;;;;;;;;;23.90;98.20;;;;;;4193600;28;19925;-66
2022/10/15 00:23:18;;;;;;;;;;;24.00;98.00;;;;;;4192789;28;19935;-66
2022/10/15 00:25:22;;;;;;;;;;;24.00;97.70;;;;;;4194259;28;19928;-66
2022/10/15 00:27:29;;;;;;;;;;;24.00;97.70;;;;;;4194113;28;19955;-66
2022/10/15 00:29:33;;;;;;;;;;;23.90;97.90;;;;;;4192417;28;19928;-66
2022/10/15 00:31:37;;;;;;;;;;;23.90;98.00;;;;;;4192416;28;20302;-66
2022/10/15 00:33:42;;;;;;;;;;;23.90;97.80;;;;;;4194060;28;19954;-66
2022/10/15 00:35:47;;;;;;;;;;;23.90;98.20;;;;;;4193846;28;19925;-65
2022/10/15 00:37:51;;;;;;;;;;;23.90;98.10;;;;;;4200500;28;19936;-65
2022/10/15 00:39:55;;;;;;;;;;;23.80;98.20;;;;;;4210052;28;20014;-66
2022/10/15 00:41:59;;;;;;;;;;;23.80;98.00;;;;;;4209314;28;19928;-65
2022/10/15 00:44:22;;;;;;;;;;;23.80;98.10;;;;;;4210825;28;19924;-66
2022/10/15 00:46:37;;;;;;;;;;;23.90;98.10;;;;;;4192907;28;19928;-65
2022/10/15 00:48:45;;;;;;;;;;;23.90;97.90;;;;;;4210488;28;19960;-65
2022/10/15 00:50:49;;;;;;;;;;;23.80;98.30;;;;;;4174803;28;19987;-65
2022/10/15 00:53:08;;;;;;;;;;;23.80;98.30;;;;;;4175045;28;20432;-65
2022/10/15 00:55:24;;;;;;;;;;;23.80;98.60;;;;;;4174348;28;20438;-66
2022/10/15 00:57:29;;;;;;;;;;;23.80;98.50;;;;;;4175113;28;19960;-65
2022/10/15 00:59:34;;;;;;;;;;;23.80;98.30;;;;;;4157696;28;20036;-66
2022/10/15 01:01:40;;;;;;;;;;;23.80;98.10;;;;;;4174074;28;19928;-66
2022/10/15 01:03:44;;;;;;;;;;;23.90;97.70;;;;;;4158745;28;19933;-66
2022/10/15 01:05:50;;;;;;;;;;;23.90;97.50;;;;;;4161466;28;20019;-66
2022/10/15 01:07:56;;;;;;;;;;;23.90;97.60;;;;;;4168910;28;19947;-66
2022/10/15 01:10:00;;;;;;;;;;;23.90;97.60;;;;;;4177641;28;19991;-66
2022/10/15 01:12:04;;;;;;;;;;;23.90;97.60;;;;;;4178291;28;19929;-66
2022/10/15 01:14:19;;;;;;;;;;;23.90;97.80;;;;;;4178585;28;19929;-66
2022/10/15 01:16:23;;;;;;;;;;;23.90;98.10;;;;;;4161889;28;19936;-66
2022/10/15 01:18:38;;;;;;;;;;;23.80;98.50;;;;;;4161270;28;20270;-66
2022/10/15 01:20:51;;;;;;;;;;;23.80;98.20;;;;;;4145310;28;20621;-66
2022/10/15 01:23:15;;;;;;;;;;;23.80;98.30;;;;;;4145338;28;19977;-66
2022/10/15 01:25:29;;;;;;;;;;;23.70;98.00;;;;;;4144453;28;19953;-65
2022/10/15 01:27:34;;;;;;;;;;;23.70;97.90;;;;;;4162203;28;20339;-65
2022/10/15 01:29:45;;;;;;;;;;;23.70;97.60;;;;;;4179989;28;20593;-65
2022/10/15 01:31:52;;;;;;;;;;;23.70;98.20;;;;;;4195514;28;19939;-66
2022/10/15 01:34:20;;;;;;;;;;;23.70;97.90;;;;;;4216183;28;19928;-65
2022/10/15 01:36:27;;;;;;;;;;;23.70;98.20;;;;;;4178737;28;19964;-65
2022/10/15 01:38:34;;;;;;;;;;;23.70;98.00;;;;;;4212295;28;19924;-65
2022/10/15 01:40:41;;;;;;;;;;;23.60;97.70;;;;;;4228501;28;19953;-65
2022/10/15 01:42:51;;;;;;;;;;;23.60;97.70;;;;;;4228957;28;19924;-65
2022/10/15 01:44:59;;;;;;;;;;;23.60;97.40;;;;;;4228569;28;20350;-65
2022/10/15 01:47:33;;;;;;;;;;;23.60;97.60;;;;;;4199178;28;19925;-65
2022/10/15 01:49:38;;;;;;;;;;;23.60;97.60;;;;;;4195497;28;19929;-66
2022/10/15 01:51:42;;;;;;;;;;;23.60;97.80;;;;;;4195214;28;19928;-66
2022/10/15 01:53:47;;;;;;;;;;;23.70;97.60;;;;;;4179339;28;20015;-65
2022/10/15 01:55:55;;;;;;;;;;;23.60;97.70;;;;;;4216966;28;19928;-66
2022/10/15 01:57:59;;;;;;;;;;;23.50;97.60;;;;;;4194936;28;19987;-65
2022/10/15 02:00:03;;;;;;;;;;;23.60;97.90;;;;;;4194390;28;19972;-65
2022/10/15 02:02:14;;;;;;;;;;;23.60;98.00;;;;;;4178621;28;19925;-66
2022/10/15 02:04:21;;;;;;;;;;;23.50;97.80;;;;;;4178223;28;19924;-66
2022/10/15 02:06:36;;;;;;;;;;;23.50;97.90;;;;;;4195187;28;19924;-66
2022/10/15 02:08:58;;;;;;;;;;;23.30;97.80;;;;;;4223055;28;20359;-66
2022/10/15 02:11:03;;;;;;;;;;;23.30;97.90;;;;;;4198957;28;20353;-67
2022/10/15 02:13:28;;;;;;;;;;;23.20;98.30;;;;;;4161653;28;19929;-67
2022/10/15 02:15:44;;;;;;;;;;;23.20;98.20;;;;;;4195181;28;20007;-67
2022/10/15 02:17:58;;;;;;;;;;;23.10;98.00;;;;;;4178313;28;19964;-67
2022/10/15 02:20:06;;;;;;;;;;;23.00;98.50;;;;;;4175984;28;20744;-67
2022/10/15 02:22:27;;;;;;;;;;;23.10;98.20;;;;;;4161679;28;19943;-66
2022/10/15 02:24:53;;;;;;;;;;;23.20;97.70;;;;;;4194913;28;19932;-66
2022/10/15 02:26:59;;;;;;;;;;;23.30;97.30;;;;;;4188225;28;20383;-66
2022/10/15 02:29:04;;;;;;;;;;;23.30;97.50;;;;;;4195367;28;19956;-66
2022/10/15 02:31:11;;;;;;;;;;;23.40;97.20;;;;;;4177553;28;19951;-66
2022/10/15 02:33:17;;;;;;;;;;;23.40;96.70;;;;;;4177009;28;19944;-67
2022/10/15 02:35:23;;;;;;;;;;;23.30;96.60;;;;;;4176692;28;19940;-66
2022/10/15 02:37:27;;;;;;;;;;;23.20;96.50;;;;;;4179877;28;19936;-66
2022/10/15 02:39:30;;;;;;;;;;;23.20;96.70;;;;;;4194675;28;19952;-66
2022/10/15 02:41:37;;;;;;;;;;;23.20;97.10;;;;;;4192458;28;19931;-66
2022/10/15 02:43:44;;;;;;;;;;;23.20;97.50;;;;;;4161798;28;20327;-67
2022/10/15 02:45:49;;;;;;;;;;;23.30;97.80;;;;;;4210395;28;20409;-66
2022/10/15 02:47:55;;;;;;;;;;;23.30;97.80;;;;;;4193840;28;20562;-67
2022/10/15 02:50:02;;;;;;;;;;;23.40;97.80;;;;;;4192613;28;20047;-67
2022/10/15 02:52:09;;;;;;;;;;;23.30;97.70;;;;;;4162231;28;19929;-67
2022/10/15 02:54:14;;;;;;;;;;;23.30;97.90;;;;;;4177399;28;19924;-66
2022/10/15 02:56:21;;;;;;;;;;;23.30;97.80;;;;;;4192362;28;19929;-66
2022/10/15 02:58:31;;;;;;;;;;;23.00;97.60;;;;;;4195631;28;19928;-66
2022/10/15 03:00:44;;;;;;;;;;;23.00;97.80;;;;;;4188950;28;20358;-68
2022/10/15 03:02:50;;;;;;;;;;;23.10;98.00;;;;;;4210171;28;19935;-67
2022/10/15 03:05:14;;;;;;;;;;;23.20;98.10;;;;;;4175745;28;19952;-67
2022/10/15 03:07:22;;;;;;;;;;;23.30;97.70;;;;;;4187691;28;20001;-67
2022/10/15 03:09:46;;;;;;;;;;;23.30;97.30;;;;;;4191867;28;19932;-67
2022/10/15 03:11:58;;;;;;;;;;;23.20;96.80;;;;;;4208771;28;19928;-67
2022/10/15 03:14:04;;;;;;;;;;;23.00;97.00;;;;;;4192172;28;19930;-67
2022/10/15 03:16:11;;;;;;;;;;;23.00;97.30;;;;;;4207377;28;19928;-67
2022/10/15 03:18:24;;;;;;;;;;;23.00;96.70;;;;;;4183210;28;19932;-67
2022/10/15 03:20:29;;;;;;;;;;;22.60;96.60;;;;;;4193582;28;19928;-66
2022/10/15 03:22:36;;;;;;;;;;;22.30;97.10;;;;;;4193120;28;19924;-67
2022/10/15 03:24:48;;;;;;;;;;;22.10;97.60;;;;;;4194233;28;20457;-66
2022/10/15 03:26:58;;;;;;;;;;;22.10;98.10;;;;;;4210353;28;19925;-66
2022/10/15 03:29:04;;;;;;;;;;;22.30;98.00;;;;;;4210545;28;19931;-66
2022/10/15 03:31:19;;;;;;;;;;;22.10;98.20;;;;;;4210702;28;19932;-66
2022/10/15 03:33:27;;;;;;;;;;;22.00;97.90;;;;;;4195355;28;20417;-66
2022/10/15 03:35:34;;;;;;;;;;;22.00;97.80;;;;;;4210452;28;19932;-67
2022/10/15 03:37:48;;;;;;;;;;;22.10;97.50;;;;;;4216642;28;19928;-66
2022/10/15 03:39:55;;;;;;;;;;;22.20;97.90;;;;;;4194340;28;19932;-66
2022/10/15 03:42:05;;;;;;;;;;;22.40;98.20;;;;;;4211719;28;19935;-64
2022/10/15 03:44:21;;;;;;;;;;;22.50;97.60;;;;;;4226569;28;19930;-66
2022/10/15 03:46:56;;;;;;;;;;;22.40;98.40;;;;;;4210845;28;20392;-65
2022/10/15 03:49:11;;;;;;;;;;;22.40;98.40;;;;;;4186256;28;19928;-66
2022/10/15 03:51:18;;;;;;;;;;;22.20;98.60;;;;;;4177323;28;19943;-66
2022/10/15 03:53:33;;;;;;;;;;;21.60;99.10;;;;;;4187774;28;19928;-65
2022/10/15 03:55:37;;;;;;;;;;;21.50;99.90;;;;;;4206555;28;19924;-65
2022/10/15 03:57:43;;;;;;;;;;;21.80;99.90;;;;;;4209330;28;19939;-66
2022/10/15 03:59:47;;;;;;;;;;;21.90;99.20;;;;;;4194042;28;19924;-65
2022/10/15 04:01:55;;;;;;;;;;;21.60;98.90;;;;;;4209242;28;19950;-65
2022/10/15 04:04:01;;;;;;;;;;;21.60;99.40;;;;;;4204755;28;20329;-66
2022/10/15 04:06:06;;;;;;;;;;;21.40;99.60;;;;;;4193469;28;19928;-66
2022/10/15 04:08:13;;;;;;;;;;;21.20;99.90;;;;;;4210168;28;19934;-66
2022/10/15 04:10:18;;;;;;;;;;;21.50;99.90;;;;;;4206811;28;20394;-67
2022/10/15 04:12:22;;;;;;;;;;;21.70;99.90;;;;;;4208717;28;19924;-66
2022/10/15 04:14:29;;;;;;;;;;;21.90;99.90;;;;;;4209472;28;20030;-67
2022/10/15 04:16:33;;;;;;;;;;;21.90;99.40;;;;;;4183949;28;19928;-67
2022/10/15 04:18:46;;;;;;;;;;;21.60;99.90;;;;;;4209179;28;19935;-67
2022/10/15 04:21:03;;;;;;;;;;;21.60;99.90;;;;;;4193893;28;19925;-67
2022/10/15 04:23:17;;;;;;;;;;;21.60;99.90;;;;;;4209255;28;19967;-67
2022/10/15 04:25:46;;;;;;;;;;;21.60;99.90;;;;;;4205737;28;19968;-67
2022/10/15 04:27:55;;;;;;;;;;;21.60;99.90;;;;;;4178308;28;19931;-67
2022/10/15 04:30:05;;;;;;;;;;;21.80;99.30;;;;;;4193482;28;20367;-67
2022/10/15 04:32:16;;;;;;;;;;;21.80;99.80;;;;;;4183125;28;20556;-67
2022/10/15 04:34:22;;;;;;;;;;;21.60;99.90;;;;;;4209913;28;20590;-67
2022/10/15 04:36:30;;;;;;;;;;;21.70;99.90;;;;;;4192161;28;20327;-67
2022/10/15 04:38:40;;;;;;;;;;;21.80;99.70;;;;;;4190692;28;20583;-67
2022/10/15 04:40:46;;;;;;;;;;;21.70;99.90;;;;;;4229220;28;20023;-67
2022/10/15 04:42:55;;;;;;;;;;;21.50;99.90;;;;;;4215059;28;20633;-67
2022/10/15 04:44:59;;;;;;;;;;;21.50;99.90;;;;;;4192273;28;19963;-67
2022/10/15 04:47:05;;;;;;;;;;;21.60;99.90;;;;;;4212821;28;19935;-67
2022/10/15 04:49:24;;;;;;;;;;;21.60;99.90;;;;;;4213386;28;20432;-67
2022/10/15 04:51:29;;;;;;;;;;;21.50;99.90;;;;;;4194758;28;19986;-67
2022/10/15 04:53:38;;;;;;;;;;;21.30;99.40;;;;;;4212818;28;19977;-67
2022/10/15 04:55:44;;;;;;;;;;;21.20;99.90;;;;;;4212650;28;19928;-66
2022/10/15 04:57:49;;;;;;;;;;;21.30;99.90;;;;;;4213433;28;19947;-67
2022/10/15 04:59:59;;;;;;;;;;;21.60;99.90;;;;;;4195018;28;19947;-66
2022/10/15 05:02:10;;;;;;;;;;;21.60;99.80;;;;;;4197365;28;19928;-67
2022/10/15 05:04:15;;;;;;;;;;;21.80;99.80;;;;;;4213526;28;19959;-67
2022/10/15 05:06:21;;;;;;;;;;;21.70;99.50;;;;;;4196793;28;20279;-67
2022/10/15 05:08:30;;;;;;;;;;;21.80;99.60;;;;;;4221478;28;19931;-67
2022/10/15 05:10:59;;;;;;;;;;;21.90;99.40;;;;;;4205455;28;19928;-68
2022/10/15 05:13:05;;;;;;;;;;;21.90;99.50;;;;;;4196724;28;20342;-67
2022/10/15 05:15:13;;;;;;;;;;;22.00;98.80;;;;;;4163518;28;20031;-67
2022/10/15 05:17:17;;;;;;;;;;;22.00;98.90;;;;;;4196868;28;20428;-67
2022/10/15 05:19:22;;;;;;;;;;;21.80;99.20;;;;;;4196268;28;19929;-68
2022/10/15 05:21:27;;;;;;;;;;;21.90;98.80;;;;;;4186516;28;20347;-67
2022/10/15 05:23:35;;;;;;;;;;;21.80;98.70;;;;;;4195483;28;20007;-66
2022/10/15 05:25:54;;;;;;;;;;;21.60;99.70;;;;;;4179189;28;19933;-67
2022/10/15 05:28:00;;;;;;;;;;;21.50;99.90;;;;;;4212575;28;20553;-67
2022/10/15 05:30:05;;;;;;;;;;;21.50;98.20;;;;;;4212502;28;19955;-67
2022/10/15 05:32:19;;;;;;;;;;;21.40;98.70;;;;;;4212871;28;19935;-67
2022/10/15 05:34:38;;;;;;;;;;;21.20;99.90;;;;;;4211239;28;19928;-67
2022/10/15 05:36:50;;;;;;;;;;;21.00;98.40;;;;;;4196590;28;20370;-67
2022/10/15 05:39:16;;;;;;;;;;;20.80;99.40;;;;;;4210715;28;19928;-68
2022/10/15 05:41:24;;;;;;;;;;;20.80;99.70;;;;;;4196330;28;19925;-67
2022/10/15 05:43:31;;;;;;;;;;;20.60;99.80;;;;;;4197065;28;19925;-67
2022/10/15 05:45:47;;;;;;;;;;;20.60;99.60;;;;;;4212603;28;19959;-67
2022/10/15 05:47:54;;;;;;;;;;;20.60;99.90;;;;;;4197275;28;19963;-67
2022/10/15 05:49:58;;;;;;;;;;;20.60;99.90;;;;;;4196308;28;19928;-67
2022/10/15 05:52:11;;;;;;;;;;;20.60;99.90;;;;;;4212064;28;19931;-67
2022/10/15 05:54:52;;;;;;;;;;;20.80;99.90;;;;;;4145214;28;19940;-67
2022/10/15 05:56:56;;;;;;;;;;;20.80;99.80;;;;;;4144195;28;19983;-66
2022/10/15 05:59:02;;;;;;;;;;;21.00;99.90;;;;;;4145416;28;20368;-67
2022/10/15 06:01:08;;;;;;;;;;;20.80;99.90;;;;;;4144451;28;19927;-67
2022/10/15 06:03:13;;;;;;;;;;;20.90;99.90;;;;;;4145113;28;19956;-67
2022/10/15 06:05:20;;;;;;;;;;;20.90;99.90;;;;;;4144800;28;19929;-67
2022/10/15 06:07:26;;;;;;;;;;;21.00;99.90;;;;;;4141311;28;19936;-67
2022/10/15 06:09:35;;;;;;;;;;;21.00;99.70;;;;;;4144585;28;19940;-67
2022/10/15 06:11:39;;;;;;;;;;;21.00;99.90;;;;;;4128572;28;19933;-67
2022/10/15 06:13:50;;;;;;;;;;;21.00;99.60;;;;;;4144542;28;19932;-67
2022/10/15 06:15:55;;;;;;;;;;;20.90;99.90;;;;;;4143406;28;20442;-67
2022/10/15 06:18:01;;;;;;;;;;;20.80;99.90;;;;;;4144040;28;19936;-67
2022/10/15 06:20:07;;;;;;;;;;;20.90;99.90;;;;;;4144483;28;19932;-67
2022/10/15 06:22:11;;;;;;;;;;;20.90;99.90;;;;;;4144499;28;19979;-67
2022/10/15 06:24:19;;;;;;;;;;;20.70;99.90;;;;;;4144648;28;20032;-68
2022/10/15 06:26:26;;;;;;;;;;;20.60;99.90;;;;;;4144815;28;19926;-68
2022/10/15 06:28:30;;;;;;;;;;;20.70;99.90;;;;;;4152787;28;19926;-67
2022/10/15 06:30:36;;;;;;;;;;;20.80;99.90;;;;;;4196010;28;19928;-67
2022/10/15 06:32:50;;;;;;;;;;;20.80;99.90;;;;;;4195989;28;19932;-67
2022/10/15 06:34:55;;;;;;;;;;;20.80;99.90;;;;;;4196474;28;19974;-65
2022/10/15 06:37:03;;;;;;;;;;;20.60;99.90;;;;;;4195721;28;20111;-66
2022/10/15 06:39:13;;;;;;;;;;;20.60;99.90;;;;;;4212622;28;19967;-66
2022/10/15 06:41:20;;;;;;;;;;;20.70;99.90;;;;;;4209386;28;19928;-66
2022/10/15 06:43:24;;;;;;;;;;;20.60;99.90;;;;;;4196150;28;20660;-66
2022/10/15 06:45:35;;;;;;;;;;;20.80;99.90;;;;;;4195954;28;19928;-66
2022/10/15 06:47:43;;;;;;;;;;;20.60;99.90;;;;;;4196130;28;19929;-66
2022/10/15 06:49:49;;;;;;;;;;;20.40;99.90;;;;;;4196019;28;19970;-66
2022/10/15 06:51:57;;;;;;;;;;;20.40;99.90;;;;;;4194406;28;19968;-65
2022/10/15 06:54:07;;;;;;;;;;;20.50;99.90;;;;;;4179234;28;19933;-66
2022/10/15 06:56:13;;;;;;;;;;;20.60;99.90;;;;;;4179239;28;20051;-66
2022/10/15 06:58:19;;;;;;;;;;;20.50;99.90;;;;;;4179259;28;20373;-65
2022/10/15 07:00:24;;;;;;;;;;;20.80;99.90;;;;;;4178727;28;19932;-65
2022/10/15 07:02:30;;;;;;;;;;;20.80;99.90;;;;;;4178440;28;19933;-66
2022/10/15 07:04:34;;;;;;;;;;;20.60;99.90;;;;;;4178462;28;19928;-66
2022/10/15 07:06:38;;;;;;;;;;;20.60;99.90;;;;;;4180392;28;19979;-66
2022/10/15 07:08:44;;;;;;;;;;;20.50;99.90;;;;;;4210253;28;19931;-65
2022/10/15 07:10:48;;;;;;;;;;;20.80;99.90;;;;;;4212705;28;19928;-65
2022/10/15 07:12:53;;;;;;;;;;;21.10;99.90;;;;;;4199463;28;19933;-65
2022/10/15 07:14:59;;;;;;;;;;;20.80;99.90;;;;;;4196102;28;19931;-65
2022/10/15 07:17:07;;;;;;;;;;;20.90;99.90;;;;;;4195705;28;19932;-65
2022/10/15 07:19:11;;;;;;;;;;;20.90;99.90;;;;;;4195664;28;19932;-65
2022/10/15 07:21:17;;;;;;;;;;;20.90;99.90;;;;;;4195467;28;19932;-66
2022/10/15 07:23:23;;;;;;;;;;;21.20;99.90;;;;;;4195912;28;19928;-66
2022/10/15 07:25:29;;;;;;;;;;;21.20;99.90;;;;;;4195776;28;19967;-65
2022/10/15 07:27:36;;;;;;;;;;;21.20;99.90;;;;;;4195744;28;19935;-66
2022/10/15 07:29:40;;;;;;;;;;;20.90;99.90;;;;;;4195519;28;20015;-66
2022/10/15 07:31:45;;;;;;;;;;;20.80;99.90;;;;;;4196020;28;19929;-67
2022/10/15 07:33:53;;;;;;;;;;;21.00;99.90;;;;;;4195566;28;19924;-66
2022/10/15 07:35:58;;;;;;;;;;;21.10;99.90;;;;;;4194774;28;20397;-67
2022/10/15 07:38:02;;;;;;;;;;;21.10;99.90;;;;;;4204024;28;20247;-67
2022/10/15 07:40:09;;;;;;;;;;;20.90;99.90;;;;;;4212264;28;19928;-67
2022/10/15 07:42:27;;;;;;;;;;;21.00;99.90;;;;;;4196497;28;20023;-66
2022/10/15 07:44:31;;;;;;;;;;;20.90;99.90;;;;;;4212234;28;20485;-66
2022/10/15 07:46:40;;;;;;;;;;;20.80;99.90;;;;;;4204632;28;19928;-67
2022/10/15 07:48:45;;;;;;;;;;;20.80;99.90;;;;;;4195348;28;19978;-66
2022/10/15 07:50:55;;;;;;;;;;;20.90;99.90;;;;;;4195268;28;19928;-66
2022/10/15 07:53:00;;;;;;;;;;;20.80;99.90;;;;;;4195619;28;19936;-67
2022/10/15 07:55:05;;;;;;;;;;;20.90;99.90;;;;;;4177894;28;19924;-67
2022/10/15 07:57:09;;;;;;;;;;;20.90;99.90;;;;;;4195023;28;20528;-67
2022/10/15 07:59:15;;;;;;;;;;;20.70;99.90;;;;;;4195372;28;19929;-67
2022/10/15 08:01:21;;;;;;;;;;;21.00;99.90;;;;;;4195093;28;19936;-67
2022/10/15 08:03:26;;;;;;;;;;;21.10;99.90;;;;;;4195006;28;19940;-67
2022/10/15 08:05:31;;;;;;;;;;;20.90;99.90;;;;;;4195436;28;19950;-67
2022/10/15 08:07:36;;;;;;;;;;;20.80;99.90;;;;;;4194794;28;19967;-66
2022/10/15 08:09:46;;;;;;;;;;;20.80;99.90;;;;;;4211701;28;19981;-66
2022/10/15 08:11:52;;;;;;;;;;;20.80;99.90;;;;;;4207167;28;19928;-66
2022/10/15 08:14:02;;;;;;;;;;;20.80;99.90;;;;;;4195187;28;19924;-67
2022/10/15 08:16:14;;;;;;;;;;;20.70;99.90;;;;;;4194919;28;19924;-66
2022/10/15 08:18:37;;;;;;;;;;;20.80;99.90;;;;;;4195156;28;19935;-65
2022/10/15 08:20:41;;;;;;;;;;;20.80;99.90;;;;;;4195150;28;19931;-66
2022/10/15 08:22:45;;;;;;;;;;;20.90;99.90;;;;;;4195135;28;19978;-66
2022/10/15 08:24:51;;;;;;;;;;;21.00;99.90;;;;;;4195124;28;19928;-66
2022/10/15 08:26:57;;;;;;;;;;;21.00;99.90;;;;;;4195179;28;20281;-66
2022/10/15 08:29:01;;;;;;;;;;;21.00;99.90;;;;;;4194018;28;20027;-66
2022/10/15 08:31:07;;;;;;;;;;;21.10;99.90;;;;;;4194179;28;19934;-66
2022/10/15 08:33:14;;;;;;;;;;;21.10;99.90;;;;;;4194684;28;20363;-66
2022/10/15 08:35:18;;;;;;;;;;;21.00;99.90;;;;;;4195143;28;19928;-66
2022/10/15 08:37:23;;;;;;;;;;;20.90;99.90;;;;;;4197989;28;19930;-67
2022/10/15 08:39:30;;;;;;;;;;;21.00;99.90;;;;;;4211535;28;19937;-67
2022/10/15 08:41:36;;;;;;;;;;;20.90;99.90;;;;;;4211668;28;19924;-67
2022/10/15 08:43:42;;;;;;;;;;;21.00;99.90;;;;;;4194312;28;19928;-66
2022/10/15 08:45:51;;;;;;;;;;;21.00;99.90;;;;;;4200469;28;19951;-66
2022/10/15 08:48:10;;;;;;;;;;;21.00;99.90;;;;;;4193789;28;19928;-66
2022/10/15 08:50:27;;;;;;;;;;;21.00;99.90;;;;;;4209984;28;20410;-66
2022/10/15 08:52:34;;;;;;;;;;;20.80;99.90;;;;;;4210063;28;19928;-66
2022/10/15 08:54:38;;;;;;;;;;;21.10;99.90;;;;;;4195042;28;20293;-66
2022/10/15 08:56:49;;;;;;;;;;;21.10;99.90;;;;;;4209844;28;20045;-68
2022/10/15 08:59:00;;;;;;;;;;;21.00;99.90;;;;;;4193530;28;19928;-69
2022/10/15 09:01:24;;;;;;;;;;;21.20;99.90;;;;;;4193434;28;19934;-68
2022/10/15 09:03:31;;;;;;;;;;;21.00;99.90;;;;;;4194977;28;19946;-68
2022/10/15 09:05:57;;;;;;;;;;;21.10;99.90;;;;;;4194787;28;19933;-67
2022/10/15 09:08:07;;;;;;;;;;;21.00;99.90;;;;;;4185234;28;19989;-67
2022/10/15 09:10:16;;;;;;;;;;;20.90;99.90;;;;;;4211287;28;19924;-68
2022/10/15 09:12:53;;;;;;;;;;;21.00;99.90;;;;;;4202701;28;19924;-67
2022/10/15 09:14:58;;;;;;;;;;;21.10;99.90;;;;;;4151904;28;19924;-67
2022/10/15 09:17:19;;;;;;;;;;;21.20;99.90;;;;;;4177085;28;19924;-67
2022/10/15 09:19:26;;;;;;;;;;;21.10;99.90;;;;;;4209410;28;19931;-67
2022/10/15 09:21:30;;;;;;;;;;;21.10;99.90;;;;;;4193876;28;19939;-68
2022/10/15 09:23:36;;;;;;;;;;;21.00;99.90;;;;;;4209347;28;20030;-67
2022/10/15 09:25:43;;;;;;;;;;;20.90;99.90;;;;;;4186319;28;19936;-68
2022/10/15 09:27:49;;;;;;;;;;;21.00;99.90;;;;;;4212542;28;19924;-68
2022/10/15 09:30:05;;;;;;;;;;;21.00;99.90;;;;;;4212305;28;20325;-68
2022/10/15 09:32:15;;;;;;;;;;;21.10;99.90;;;;;;4196739;28;19924;-68
2022/10/15 09:34:21;;;;;;;;;;;21.30;99.90;;;;;;4197220;28;20022;-68
2022/10/15 09:36:32;;;;;;;;;;;21.20;99.90;;;;;;4193436;28;20032;-68
2022/10/15 09:38:38;;;;;;;;;;;21.30;99.90;;;;;;4197489;28;20410;-68
2022/10/15 09:40:42;;;;;;;;;;;21.40;99.90;;;;;;4196951;28;19986;-69
2022/10/15 09:42:46;;;;;;;;;;;21.30;99.90;;;;;;4194955;28;19924;-68
2022/10/15 09:44:52;;;;;;;;;;;21.40;99.90;;;;;;4211771;28;20303;-67
2022/10/15 09:46:57;;;;;;;;;;;21.40;99.90;;;;;;4211542;28;20027;-68
2022/10/15 09:49:11;;;;;;;;;;;21.40;99.90;;;;;;4211527;28;19935;-68
2022/10/15 09:51:27;;;;;;;;;;;21.40;99.90;;;;;;4196422;28;19928;-68
2022/10/15 09:53:39;;;;;;;;;;;21.40;99.90;;;;;;4210739;28;19997;-67
2022/10/15 09:55:51;;;;;;;;;;;21.40;99.90;;;;;;4209448;28;19931;-68
2022/10/15 09:58:09;;;;;;;;;;;21.40;99.90;;;;;;4196546;28;19935;-68
2022/10/15 10:00:14;;;;;;;;;;;21.40;99.90;;;;;;4210672;28;19924;-67
2022/10/15 10:02:20;;;;;;;;;;;21.40;99.90;;;;;;4196221;28;19936;-68
2022/10/15 10:04:29;;;;;;;;;;;21.40;99.90;;;;;;4194351;28;19924;-68
2022/10/15 10:06:32;;;;;;;;;;;21.40;99.90;;;;;;4194866;28;19935;-67
2022/10/15 10:08:38;;;;;;;;;;;21.30;99.90;;;;;;4211367;28;19978;-68
2022/10/15 10:10:44;;;;;;;;;;;21.20;99.90;;;;;;4196348;28;20018;-68
2022/10/15 10:12:48;;;;;;;;;;;21.30;99.90;;;;;;4196041;28;20014;-67
2022/10/15 10:14:57;;;;;;;;;;;21.20;99.90;;;;;;4196116;28;19928;-68
2022/10/15 10:17:05;;;;;;;;;;;21.30;99.90;;;;;;4211368;28;20418;-67
2022/10/15 10:19:10;;;;;;;;;;;21.30;99.90;;;;;;4184460;28;20610;-67
2022/10/15 10:21:22;;;;;;;;;;;21.30;99.90;;;;;;4194323;28;19925;-67
2022/10/15 10:23:33;;;;;;;;;;;21.30;99.90;;;;;;4211840;28;19924;-68
2022/10/15 10:25:38;;;;;;;;;;;21.20;99.90;;;;;;4196373;28;19936;-67
2022/10/15 10:27:44;;;;;;;;;;;21.20;99.90;;;;;;4194822;28;19935;-68
2022/10/15 10:29:55;;;;;;;;;;;21.10;99.90;;;;;;4194506;28;19929;-68
2022/10/15 10:31:58;;;;;;;;;;;21.00;99.90;;;;;;4211417;28;19932;-67
2022/10/15 10:34:08;;;;;;;;;;;21.00;99.90;;;;;;4189670;28;19956;-68
2022/10/15 10:36:19;;;;;;;;;;;21.00;99.90;;;;;;4211347;28;20023;-67
2022/10/15 10:38:34;;;;;;;;;;;21.00;99.90;;;;;;4189888;28;19932;-69
2022/10/15 10:40:38;;;;;;;;;;;21.00;99.90;;;;;;4193475;28;19924;-68
2022/10/15 10:42:46;;;;;;;;;;;21.10;99.90;;;;;;4195369;28;19935;-67
2022/10/15 10:44:52;;;;;;;;;;;21.10;99.90;;;;;;4193080;28;19933;-68
2022/10/15 10:47:08;;;;;;;;;;;21.10;99.90;;;;;;4209705;28;19924;-67
2022/10/15 10:49:21;;;;;;;;;;;21.20;99.90;;;;;;4195882;28;19924;-67
2022/10/15 10:51:27;;;;;;;;;;;21.10;99.90;;;;;;4178512;28;20417;-67
2022/10/15 10:53:33;;;;;;;;;;;21.10;99.90;;;;;;4195720;28;19932;-67
2022/10/15 10:55:39;;;;;;;;;;;21.00;99.90;;;;;;4193540;28;19928;-66
2022/10/15 10:57:50;;;;;;;;;;;21.20;99.90;;;;;;4202654;28;19924;-69
2022/10/15 10:59:55;;;;;;;;;;;21.00;99.90;;;;;;4196317;28;19940;-68
2022/10/15 11:02:05;;;;;;;;;;;21.00;99.90;;;;;;4178318;28;20024;-68
2022/10/15 11:04:11;;;;;;;;;;;21.10;99.60;;;;;;4194188;28;19924;-67
2022/10/15 11:06:31;;;;;;;;;;;21.00;99.50;;;;;;4195592;28;19929;-69
2022/10/15 11:08:43;;;;;;;;;;;21.00;99.70;;;;;;4202673;28;20588;-68
2022/10/15 11:10:56;;;;;;;;;;;21.00;99.70;;;;;;4193924;28;19939;-68
2022/10/15 11:13:00;;;;;;;;;;;21.00;99.80;;;;;;4193064;28;19955;-68
2022/10/15 11:15:05;;;;;;;;;;;21.00;99.70;;;;;;4196119;28;19924;-68
2022/10/15 11:17:33;;;;;;;;;;;21.10;99.80;;;;;;4197368;28;19924;-68
2022/10/15 11:19:43;;;;;;;;;;;21.10;99.90;;;;;;4188399;28;19940;-68
2022/10/15 11:22:08;;;;;;;;;;;21.20;99.90;;;;;;4158722;28;19925;-68
2022/10/15 11:24:12;;;;;;;;;;;21.20;99.80;;;;;;4152654;28;19955;-68
2022/10/15 11:26:25;;;;;;;;;;;21.00;99.90;;;;;;4151059;28;19933;-68
2022/10/15 11:28:41;;;;;;;;;;;21.00;99.90;;;;;;4150026;28;19937;-68
2022/10/15 11:30:48;;;;;;;;;;;21.20;99.90;;;;;;4133236;28;19971;-68
2022/10/15 11:32:55;;;;;;;;;;;21.30;99.90;;;;;;4151060;28;19929;-68
2022/10/15 11:35:33;;;;;;;;;;;21.40;99.90;;;;;;4135270;28;19937;-68
2022/10/15 11:37:54;;;;;;;;;;;21.40;99.90;;;;;;4158070;28;19944;-68
2022/10/15 11:40:01;;;;;;;;;;;21.30;99.90;;;;;;4142934;28;19940;-68
2022/10/15 11:42:29;;;;;;;;;;;21.30;99.90;;;;;;4143451;28;20423;-68
2022/10/15 11:44:41;;;;;;;;;;;21.30;99.90;;;;;;4143154;28;19925;-67
2022/10/15 11:46:50;;;;;;;;;;;21.20;99.90;;;;;;4143080;28;19936;-67
2022/10/15 11:49:20;;;;;;;;;;;21.30;99.90;;;;;;4127087;28;19929;-67
2022/10/15 11:51:49;;;;;;;;;;;21.30;99.90;;;;;;4121652;28;20018;-67
2022/10/15 11:53:56;;;;;;;;;;;21.20;99.90;;;;;;4163528;28;19932;-67
2022/10/15 11:56:05;;;;;;;;;;;21.30;99.90;;;;;;4194778;28;19928;-68
2022/10/15 11:58:17;;;;;;;;;;;21.30;99.90;;;;;;4210224;28;19963;-68
2022/10/15 12:00:30;;;;;;;;;;;21.40;99.90;;;;;;4209184;28;19975;-68
2022/10/15 12:02:35;;;;;;;;;;;21.40;99.90;;;;;;4195046;28;19968;-68
2022/10/15 12:04:59;;;;;;;;;;;21.40;99.90;;;;;;4195033;28;20321;-68
2022/10/15 12:07:05;;;;;;;;;;;21.40;99.90;;;;;;4189912;28;19929;-68
2022/10/15 12:09:12;;;;;;;;;;;21.50;99.90;;;;;;4211592;28;19931;-68
2022/10/15 12:11:36;;;;;;;;;;;21.50;99.90;;;;;;4194022;28;20458;-68
2022/10/15 12:13:43;;;;;;;;;;;21.40;99.90;;;;;;4199000;28;19934;-68
2022/10/15 12:15:47;;;;;;;;;;;21.40;99.90;;;;;;4200020;28;20452;-68
2022/10/15 12:18:13;;;;;;;;;;;21.40;99.90;;;;;;4194773;28;20600;-68
2022/10/15 12:20:24;;;;;;;;;;;21.40;99.90;;;;;;4192049;28;20456;-67
2022/10/15 12:22:51;;;;;;;;;;;21.50;99.90;;;;;;4199176;28;19936;-67
2022/10/15 12:25:01;;;;;;;;;;;21.40;99.90;;;;;;4194629;28;19971;-67
2022/10/15 12:27:19;;;;;;;;;;;21.40;99.90;;;;;;4194154;28;19932;-67
2022/10/15 12:29:25;;;;;;;;;;;21.40;99.90;;;;;;4177216;28;19925;-68
2022/10/15 12:31:43;;;;;;;;;;;21.40;99.90;;;;;;4186619;28;20337;-67